createdAt,value
2023-02-15T00:00:20.256Z,93.6
2023-02-15T00:01:23.322Z,93.7
2023-02-15T00:02:26.651Z,93.7
2023-02-15T00:03:29.539Z,93.8
2023-02-15T00:04:32.870Z,94.6
2023-02-15T00:05:36.964Z,94.3
2023-02-15T00:06:40.839Z,94
2023-02-15T00:07:43.305Z,93.9
2023-02-15T00:08:46.151Z,94
2023-02-15T00:09:49.921Z,93.9
2023-02-15T00:10:53.381Z,94
2023-02-15T00:11:57.300Z,94
2023-02-15T00:12:59.820Z,94.2
2023-02-15T00:14:02.554Z,94.3
2023-02-15T00:15:05.346Z,94.2
2023-02-15T00:16:08.812Z,94.3
2023-02-15T00:17:12.017Z,94.3
2023-02-15T00:18:15.417Z,94.1
2023-02-15T00:19:17.894Z,94.3
2023-02-15T00:20:21.347Z,94.2
2023-02-15T00:21:25.120Z,94.4
2023-02-15T00:22:28.252Z,94.4
2023-02-15T00:23:31.320Z,94.5
2023-02-15T00:24:34.847Z,94.6
2023-02-15T00:25:37.671Z,94.6
2023-02-15T00:26:41.441Z,94.6
2023-02-15T00:27:45.582Z,94.4
2023-02-15T00:28:49.285Z,94.7
2023-02-15T00:29:52.257Z,94.7
2023-02-15T00:30:56.437Z,94.6
2023-02-15T00:32:00.626Z,94.7
2023-02-15T00:33:04.086Z,94.8
2023-02-15T00:34:07.089Z,94.7
2023-02-15T00:35:11.303Z,94.6
2023-02-15T00:36:15.535Z,94.5
2023-02-15T00:37:19.254Z,94.6
2023-02-15T00:38:21.799Z,94.7
2023-02-15T00:39:25.566Z,94.9
2023-02-15T00:40:28.088Z,95.1
2023-02-15T00:41:31.167Z,94.9
2023-02-15T00:42:34.906Z,94.9
2023-02-15T00:43:38.890Z,94.8
2023-02-15T00:44:42.263Z,94.5
2023-02-15T00:45:45.478Z,94.4
2023-02-15T00:46:48.968Z,94.3
2023-02-15T00:47:51.749Z,94.4
2023-02-15T00:48:55.150Z,94.3
2023-02-15T00:49:58.152Z,94.3
2023-02-15T00:51:01.546Z,94.2
2023-02-15T00:52:05.286Z,94.3
2023-02-15T00:53:08.285Z,94.7
2023-02-15T00:54:12.011Z,94.8
2023-02-15T00:55:15.513Z,95.1
2023-02-15T00:56:19.114Z,95
2023-02-15T00:57:22.213Z,95
2023-02-15T00:58:25.441Z,95.1
2023-02-15T00:59:29.536Z,95.1
2023-02-15T01:00:32.353Z,95
2023-02-15T01:01:36.044Z,94.9
2023-02-15T01:02:39.917Z,94.8
2023-02-15T01:03:43.671Z,94.7
2023-02-15T01:04:47.492Z,94.5
2023-02-15T01:05:50.923Z,94.3
2023-02-15T01:06:54.614Z,94.2
2023-02-15T01:07:57.428Z,94.4
2023-02-15T01:09:00.904Z,94.5
2023-02-15T01:10:04.246Z,94.6
2023-02-15T01:11:07.608Z,94.6
2023-02-15T01:12:11.091Z,94.7
2023-02-15T01:13:14.250Z,94.6
2023-02-15T01:14:17.355Z,94.8
2023-02-15T01:15:21.496Z,94.8
2023-02-15T01:16:25.466Z,94.7
2023-02-15T01:17:28.803Z,94.7
2023-02-15T01:18:31.778Z,94.6
2023-02-15T01:19:34.326Z,94.6
2023-02-15T01:20:37.739Z,94.6
2023-02-15T01:21:40.619Z,94.9
2023-02-15T01:22:43.413Z,95
2023-02-15T01:23:46.451Z,95.1
2023-02-15T01:24:50.172Z,95
2023-02-15T01:25:52.961Z,94.9
2023-02-15T01:26:56.681Z,94.7
2023-02-15T01:27:59.797Z,94.8
2023-02-15T01:29:02.899Z,94.8
2023-02-15T01:30:06.263Z,94.9
2023-02-15T01:31:11.023Z,95.1
2023-02-15T01:32:14.748Z,95.2
2023-02-15T01:33:17.746Z,95.7
2023-02-15T01:34:21.506Z,95.9
2023-02-15T01:35:24.615Z,95.9
2023-02-15T01:36:28.030Z,95.9
2023-02-15T01:37:31.012Z,95.7
2023-02-15T01:38:33.819Z,95.8
2023-02-15T01:39:37.118Z,95.7
2023-02-15T01:40:40.461Z,95.6
2023-02-15T01:41:44.462Z,95.5
2023-02-15T01:42:47.851Z,95.4
2023-02-15T01:43:50.837Z,95.3
2023-02-15T01:44:53.896Z,95.4
2023-02-15T01:45:57.796Z,95.4
2023-02-15T01:47:01.949Z,95.5
2023-02-15T01:48:04.897Z,95.8
2023-02-15T01:49:08.164Z,95.9
2023-02-15T01:50:11.883Z,95.9
2023-02-15T01:51:15.317Z,96.1
2023-02-15T01:52:18.465Z,96.1
2023-02-15T01:53:21.804Z,96.2
2023-02-15T01:54:25.232Z,96.2
2023-02-15T01:55:28.805Z,96.3
2023-02-15T01:56:31.519Z,96.4
2023-02-15T01:57:34.903Z,96.4
2023-02-15T01:58:38.026Z,96.3
2023-02-15T01:59:41.143Z,96.2
2023-02-15T02:00:44.605Z,96.2
2023-02-15T02:01:47.910Z,96.1
2023-02-15T02:02:52.582Z,96.1
2023-02-15T02:03:55.702Z,96.3
2023-02-15T02:04:58.855Z,96.2
2023-02-15T02:06:04.019Z,96.1
2023-02-15T02:07:06.834Z,96.2
2023-02-15T02:08:10.096Z,96.1
2023-02-15T02:09:13.619Z,96
2023-02-15T02:10:16.918Z,96
2023-02-15T02:11:20.347Z,96
2023-02-15T02:12:23.689Z,95.9
2023-02-15T02:13:27.031Z,96
2023-02-15T02:14:30.437Z,95.9
2023-02-15T02:15:33.575Z,95.9
2023-02-15T02:16:36.883Z,96
2023-02-15T02:17:40.037Z,96.1
2023-02-15T02:18:44.118Z,96
2023-02-15T02:19:47.037Z,96.1
2023-02-15T02:20:49.969Z,96.2
2023-02-15T02:21:53.672Z,96.4
2023-02-15T02:22:56.662Z,96.4
2023-02-15T02:24:00.024Z,96.3
2023-02-15T02:25:02.744Z,96.3
2023-02-15T02:26:06.139Z,96.3
2023-02-15T02:27:09.948Z,96.2
2023-02-15T02:28:12.819Z,96
2023-02-15T02:29:16.078Z,96
2023-02-15T02:30:19.445Z,96
2023-02-15T02:31:22.957Z,96
2023-02-15T02:32:26.456Z,96
2023-02-15T02:33:29.493Z,96.3
2023-02-15T02:34:33.605Z,96.3
2023-02-15T02:35:36.326Z,96.3
2023-02-15T02:36:39.707Z,96.3
2023-02-15T02:37:43.001Z,96.3
2023-02-15T02:38:45.858Z,96.3
2023-02-15T02:39:49.075Z,96.2
2023-02-15T02:40:52.448Z,96.2
2023-02-15T02:41:55.683Z,96.2
2023-02-15T02:42:58.943Z,96.4
2023-02-15T02:44:01.998Z,96.3
2023-02-15T02:45:05.611Z,96.2
2023-02-15T02:46:08.917Z,96.1
2023-02-15T02:47:12.089Z,96.3
2023-02-15T02:48:15.217Z,96.6
2023-02-15T02:49:18.670Z,96.6
2023-02-15T02:50:22.771Z,96.7
2023-02-15T02:51:26.162Z,96.8
2023-02-15T02:52:28.982Z,96.7
2023-02-15T02:53:32.068Z,96.9
2023-02-15T02:54:35.269Z,96.7
2023-02-15T02:55:38.538Z,96.8
2023-02-15T02:56:41.631Z,97.1
2023-02-15T02:57:44.075Z,97
2023-02-15T02:58:47.528Z,97
2023-02-15T02:59:50.034Z,97.1
2023-02-15T03:00:53.052Z,97.2
2023-02-15T03:01:56.049Z,97.3
2023-02-15T03:02:58.934Z,97.5
2023-02-15T03:04:02.475Z,97.6
2023-02-15T03:05:05.584Z,97.4
2023-02-15T03:06:09.722Z,97.3
2023-02-15T03:07:13.173Z,97.2
2023-02-15T03:08:16.146Z,96.9
2023-02-15T03:09:18.961Z,96.8
2023-02-15T03:10:22.320Z,96.6
2023-02-15T03:11:26.043Z,96.6
2023-02-15T03:12:29.325Z,96.6
2023-02-15T03:13:32.472Z,96.5
2023-02-15T03:14:35.544Z,96.6
2023-02-15T03:15:38.687Z,96.7
2023-02-15T03:16:41.387Z,96.6
2023-02-15T03:17:44.292Z,96.7
2023-02-15T03:18:46.983Z,96.7
2023-02-15T03:19:50.250Z,96.6
2023-02-15T03:20:53.661Z,96.7
2023-02-15T03:21:57.738Z,96.9
2023-02-15T03:23:00.661Z,96.9
2023-02-15T03:24:03.855Z,97
2023-02-15T03:25:07.058Z,97
2023-02-15T03:26:10.413Z,97
2023-02-15T03:27:13.111Z,97
2023-02-15T03:28:15.798Z,97.2
2023-02-15T03:29:18.958Z,97.1
2023-02-15T03:30:23.229Z,97.1
2023-02-15T03:31:26.434Z,97.2
2023-02-15T03:32:30.071Z,97.2
2023-02-15T03:33:32.778Z,97.2
2023-02-15T03:34:36.214Z,97.4
2023-02-15T03:35:39.994Z,97.5
2023-02-15T03:36:43.909Z,97.4
2023-02-15T03:37:47.986Z,97.3
2023-02-15T03:38:50.985Z,97.1
2023-02-15T03:39:53.954Z,97
2023-02-15T03:40:57.560Z,97
2023-02-15T03:42:00.894Z,97
2023-02-15T03:43:03.882Z,97.1
2023-02-15T03:44:06.953Z,97.2
2023-02-15T03:45:10.328Z,97.1
2023-02-15T03:46:14.163Z,97
2023-02-15T03:47:17.199Z,97
2023-02-15T03:48:20.378Z,97
2023-02-15T03:49:23.385Z,96.9
2023-02-15T03:50:26.541Z,97.1
2023-02-15T03:51:29.630Z,97.2
2023-02-15T03:52:32.506Z,97.1
2023-02-15T03:53:36.581Z,97
2023-02-15T03:54:39.435Z,97
2023-02-15T03:55:42.585Z,97.1
2023-02-15T03:56:45.965Z,97
2023-02-15T03:57:49.058Z,97.1
2023-02-15T03:58:52.669Z,97.2
2023-02-15T03:59:55.773Z,97.4
2023-02-15T04:00:58.890Z,97.6
2023-02-15T04:02:02.140Z,97.6
2023-02-15T04:03:06.122Z,97.7
2023-02-15T04:04:09.176Z,97.6
2023-02-15T04:05:12.065Z,97.6
2023-02-15T04:06:14.482Z,97.7
2023-02-15T04:07:17.586Z,98
2023-02-15T04:08:20.667Z,98
2023-02-15T04:09:24.711Z,97.9
2023-02-15T04:10:27.820Z,98
2023-02-15T04:11:30.810Z,98
2023-02-15T04:12:33.602Z,97.9
2023-02-15T04:13:36.367Z,97.9
2023-02-15T04:14:39.798Z,97.9
2023-02-15T04:15:42.921Z,97.9
2023-02-15T04:16:46.360Z,97.8
2023-02-15T04:17:50.272Z,97.7
2023-02-15T04:18:53.321Z,97.5
2023-02-15T04:19:56.767Z,97.3
2023-02-15T04:20:59.908Z,97.3
2023-02-15T04:22:02.730Z,97.3
2023-02-15T04:23:05.268Z,97.2
2023-02-15T04:24:08.018Z,97.2
2023-02-15T04:25:12.085Z,97.1
2023-02-15T04:26:15.325Z,97.1
2023-02-15T04:27:19.362Z,97.1
2023-02-15T04:28:22.192Z,97.1
2023-02-15T04:29:25.298Z,97.1
2023-02-15T04:30:29.184Z,97
2023-02-15T04:31:33.026Z,97.1
2023-02-15T04:32:37.151Z,97.6
2023-02-15T04:33:40.547Z,97.8
2023-02-15T04:34:43.362Z,97.9
2023-02-15T04:35:46.145Z,98
2023-02-15T04:36:48.914Z,98.1
2023-02-15T04:37:51.346Z,98.2
2023-02-15T04:38:54.150Z,98.3
2023-02-15T04:39:57.647Z,98.3
2023-02-15T04:41:01.788Z,98.2
2023-02-15T04:42:04.495Z,98.1
2023-02-15T04:43:07.571Z,98
2023-02-15T04:44:11.288Z,98.1
2023-02-15T04:45:14.150Z,98.2
2023-02-15T04:46:17.646Z,98.3
2023-02-15T04:47:20.784Z,98.2
2023-02-15T04:48:23.841Z,98.2
2023-02-15T04:49:26.989Z,98.3
2023-02-15T04:50:30.501Z,98.3
2023-02-15T04:51:33.481Z,98.2
2023-02-15T04:52:35.619Z,98.2
2023-02-15T04:53:38.963Z,98.1
2023-02-15T04:54:41.692Z,98
2023-02-15T04:55:45.819Z,98
2023-02-15T04:56:49.915Z,98
2023-02-15T04:57:53.081Z,98.2
2023-02-15T04:58:56.438Z,98.2
2023-02-15T04:59:59.243Z,98.2
2023-02-15T05:01:02.890Z,98.1
2023-02-15T05:02:06.762Z,98.1
2023-02-15T05:03:09.828Z,98.2
2023-02-15T05:04:12.712Z,98.2
2023-02-15T05:05:15.912Z,98.3
2023-02-15T05:06:18.796Z,98.4
2023-02-15T05:07:21.606Z,98.5
2023-02-15T05:08:24.317Z,98.6
2023-02-15T05:09:27.396Z,98.6
2023-02-15T05:10:30.755Z,98.5
2023-02-15T05:11:34.459Z,98.4
2023-02-15T05:12:38.321Z,98.5
2023-02-15T05:13:41.155Z,98.4
2023-02-15T05:14:44.302Z,98.4
2023-02-15T05:15:47.957Z,98.5
2023-02-15T05:16:51.264Z,98.3
2023-02-15T05:17:54.396Z,98.4
2023-02-15T05:18:57.202Z,98.6
2023-02-15T05:20:00.338Z,98.6
2023-02-15T05:21:03.694Z,98.8
2023-02-15T05:22:06.478Z,98.8
2023-02-15T05:23:09.491Z,98.6
2023-02-15T05:24:12.639Z,98.6
2023-02-15T05:25:15.798Z,98.6
2023-02-15T05:26:19.934Z,98.6
2023-02-15T05:27:23.351Z,98.6
2023-02-15T05:28:26.866Z,98.5
2023-02-15T05:29:29.447Z,98.7
2023-02-15T05:30:33.505Z,98.8
2023-02-15T05:31:38.521Z,98.9
2023-02-15T05:32:43.116Z,98.9
2023-02-15T05:33:47.336Z,98.9
2023-02-15T05:34:50.088Z,98.8
2023-02-15T05:35:53.356Z,98.7
2023-02-15T05:36:55.586Z,98.6
2023-02-15T05:37:58.483Z,98.7
2023-02-15T05:39:01.883Z,98.6
2023-02-15T05:40:05.163Z,98.5
2023-02-15T05:41:08.140Z,98.5
2023-02-15T05:42:11.419Z,98.6
2023-02-15T05:43:15.178Z,98.5
2023-02-15T05:44:19.264Z,98.4
2023-02-15T05:45:22.265Z,98.5
2023-02-15T05:46:25.668Z,98.5
2023-02-15T05:47:28.560Z,98.4
2023-02-15T05:48:32.568Z,98.3
2023-02-15T05:49:36.309Z,98.4
2023-02-15T05:50:39.946Z,98.6
2023-02-15T05:51:42.695Z,98.7
2023-02-15T05:52:45.120Z,98.7
2023-02-15T05:53:47.114Z,98.7
2023-02-15T05:54:50.180Z,98.7
2023-02-15T05:55:53.265Z,98.8
2023-02-15T05:56:56.653Z,98.8
2023-02-15T05:58:00.104Z,98.7
2023-02-15T05:59:03.390Z,98.7
2023-02-15T06:00:07.263Z,98.6
2023-02-15T06:01:10.534Z,98.5
2023-02-15T06:02:13.839Z,98.5
2023-02-15T06:03:16.621Z,98.4
2023-02-15T06:04:20.232Z,98.3
2023-02-15T06:05:23.364Z,98.4
2023-02-15T06:06:27.038Z,98.5
2023-02-15T06:07:29.820Z,98.5
2023-02-15T06:08:32.858Z,98.5
2023-02-15T06:09:35.628Z,98.6
2023-02-15T06:10:39.001Z,98.7
2023-02-15T06:11:42.383Z,98.6
2023-02-15T06:12:45.092Z,98.7
2023-02-15T06:13:48.476Z,98.8
2023-02-15T06:14:51.268Z,98.8
2023-02-15T06:15:55.644Z,98.7
2023-02-15T06:16:59.522Z,98.6
2023-02-15T06:18:02.194Z,98.6
2023-02-15T06:19:05.447Z,98.6
2023-02-15T06:20:08.283Z,98.6
2023-02-15T06:21:11.310Z,98.5
2023-02-15T06:22:14.685Z,98.5
2023-02-15T06:23:17.506Z,98.5
2023-02-15T06:24:20.885Z,98.5
2023-02-15T06:25:23.675Z,98.5
2023-02-15T06:26:27.041Z,98.5
2023-02-15T06:27:29.944Z,98.4
2023-02-15T06:28:32.720Z,98.4
2023-02-15T06:29:36.053Z,98.4
2023-02-15T06:30:40.033Z,98.4
2023-02-15T06:31:45.097Z,98.4
2023-02-15T06:32:48.226Z,98.3
2023-02-15T06:33:51.615Z,98.3
2023-02-15T06:34:55.044Z,98.3
2023-02-15T06:35:58.112Z,98.3
2023-02-15T06:37:01.511Z,98.4
2023-02-15T06:38:04.665Z,98.5
2023-02-15T06:39:07.208Z,98.4
2023-02-15T06:40:11.006Z,98.4
2023-02-15T06:41:14.614Z,98.3
2023-02-15T06:42:18.103Z,98.3
2023-02-15T06:43:20.942Z,98.3
2023-02-15T06:44:23.936Z,98.5
2023-02-15T06:45:26.780Z,98.5
2023-02-15T06:46:30.439Z,98.6
2023-02-15T06:47:34.508Z,98.8
2023-02-15T06:48:37.059Z,98.9
2023-02-15T06:49:39.973Z,99
2023-02-15T06:50:43.467Z,99
2023-02-15T06:51:47.446Z,99
2023-02-15T06:52:49.900Z,99
2023-02-15T06:53:53.264Z,99
2023-02-15T06:54:56.421Z,98.9
2023-02-15T06:56:00.699Z,98.9
2023-02-15T06:57:03.918Z,98.9
2023-02-15T06:58:07.684Z,98.8
2023-02-15T06:59:11.334Z,98.8
2023-02-15T07:00:14.434Z,98.7
2023-02-15T07:01:18.026Z,98.7
2023-02-15T07:02:21.512Z,98.6
2023-02-15T07:03:25.566Z,98.4
2023-02-15T07:04:29.198Z,98.3
2023-02-15T07:05:33.503Z,98.2
2023-02-15T07:06:36.934Z,98.4
2023-02-15T07:07:40.610Z,98.4
2023-02-15T07:08:43.346Z,98.6
2023-02-15T07:09:47.123Z,98.8
2023-02-15T07:10:50.417Z,98.8
2023-02-15T07:11:53.787Z,98.9
2023-02-15T07:12:56.510Z,99
2023-02-15T07:13:59.875Z,99
2023-02-15T07:15:02.935Z,99.1
2023-02-15T07:16:06.795Z,99.2
2023-02-15T07:17:37.269Z,99.1
2023-02-15T07:18:41.498Z,99.2
2023-02-15T07:19:44.456Z,99.3
2023-02-15T07:20:48.454Z,99.2
2023-02-15T07:21:51.521Z,99.2
2023-02-15T07:22:54.888Z,99.2
2023-02-15T07:23:58.068Z,99.2
2023-02-15T07:25:00.879Z,99.1
2023-02-15T07:26:04.712Z,98.9
2023-02-15T07:27:07.877Z,98.8
2023-02-15T07:28:11.001Z,98.7
2023-02-15T07:29:13.988Z,98.6
2023-02-15T07:30:18.444Z,98.5
2023-02-15T07:31:21.798Z,98.4
2023-02-15T07:32:25.516Z,98.4
2023-02-15T07:33:29.147Z,98.3
2023-02-15T07:34:33.468Z,98.3
2023-02-15T07:35:36.256Z,98.2
2023-02-15T07:36:39.703Z,98.1
2023-02-15T07:37:42.753Z,98.2
2023-02-15T07:38:45.832Z,98.1
2023-02-15T07:39:49.204Z,98.1
2023-02-15T07:40:53.029Z,98
2023-02-15T07:41:56.025Z,98
2023-02-15T07:42:59.398Z,98
2023-02-15T07:44:02.589Z,98
2023-02-15T07:45:05.740Z,98
2023-02-15T07:46:09.314Z,98.1
2023-02-15T07:47:12.766Z,98.1
2023-02-15T07:48:15.852Z,98.1
2023-02-15T07:49:19.434Z,98.1
2023-02-15T07:50:23.585Z,98.1
2023-02-15T07:51:27.338Z,98
2023-02-15T07:52:30.699Z,97.9
2023-02-15T07:53:34.066Z,97.9
2023-02-15T07:54:37.292Z,97.9
2023-02-15T07:55:40.664Z,97.8
2023-02-15T07:56:43.505Z,97.9
2023-02-15T07:57:47.091Z,98
2023-02-15T07:58:50.480Z,98
2023-02-15T07:59:53.265Z,98.1
2023-02-15T08:00:56.615Z,98.3
2023-02-15T08:02:00.139Z,98.5
2023-02-15T08:03:04.458Z,98.5
2023-02-15T08:04:08.223Z,98.6
2023-02-15T08:05:11.413Z,98.6
2023-02-15T08:06:15.633Z,98.5
2023-02-15T08:07:18.413Z,98.5
2023-02-15T08:08:22.063Z,98.5
2023-02-15T08:09:25.400Z,98.7
2023-02-15T08:10:28.668Z,98.8
2023-02-15T08:11:31.851Z,98.8
2023-02-15T08:12:35.302Z,98.8
2023-02-15T08:13:38.967Z,98.7
2023-02-15T08:14:42.032Z,98.7
2023-02-15T08:15:45.454Z,98.6
2023-02-15T08:16:49.185Z,98.6
2023-02-15T08:17:53.190Z,98.4
2023-02-15T08:18:55.708Z,98.5
2023-02-15T08:19:57.880Z,98.6
2023-02-15T08:21:01.613Z,98.6
2023-02-15T08:22:05.470Z,98.7
2023-02-15T08:23:08.640Z,98.7
2023-02-15T08:24:11.437Z,98.8
2023-02-15T08:25:14.272Z,98.9
2023-02-15T08:26:17.633Z,98.8
2023-02-15T08:27:20.411Z,98.6
2023-02-15T08:28:23.734Z,98.5
2023-02-15T08:29:27.107Z,98.6
2023-02-15T08:30:30.964Z,98.5
2023-02-15T08:31:38.103Z,98.5
2023-02-15T08:32:41.485Z,98.4
2023-02-15T08:33:44.946Z,98.3
2023-02-15T08:34:48.003Z,98.2
2023-02-15T08:35:51.426Z,98.1
2023-02-15T08:36:54.579Z,98.1
2023-02-15T08:37:58.509Z,98.2
2023-02-15T08:39:01.585Z,98.2
2023-02-15T08:40:04.101Z,98.3
2023-02-15T08:41:07.444Z,98.3
2023-02-15T08:42:10.506Z,98.4
2023-02-15T08:43:13.571Z,98.5
2023-02-15T08:44:17.287Z,98.4
2023-02-15T08:45:20.641Z,98.3
2023-02-15T08:46:24.012Z,98.2
2023-02-15T08:47:27.092Z,98.2
2023-02-15T08:48:30.773Z,98.3
2023-02-15T08:49:33.608Z,98.4
2023-02-15T08:50:37.286Z,98.4
2023-02-15T08:51:40.986Z,98.4
2023-02-15T08:52:43.781Z,98.4
2023-02-15T08:53:47.949Z,98.4
2023-02-15T08:54:50.194Z,98.8
2023-02-15T08:55:53.490Z,98.8
2023-02-15T08:56:56.849Z,98.9
2023-02-15T08:57:59.600Z,99
2023-02-15T08:59:03.404Z,99.1
2023-02-15T09:00:06.902Z,99.2
2023-02-15T09:01:10.609Z,99.2
2023-02-15T09:02:14.051Z,98.9
2023-02-15T09:03:17.244Z,98.8
2023-02-15T09:04:19.715Z,98.8
2023-02-15T09:05:23.110Z,98.7
2023-02-15T09:06:26.473Z,98.6
2023-02-15T09:07:29.217Z,98.5
2023-02-15T09:08:32.906Z,98.5
2023-02-15T09:09:36.766Z,98.6
2023-02-15T09:10:39.841Z,98.7
2023-02-15T09:11:42.655Z,98.8
2023-02-15T09:12:45.675Z,99.1
2023-02-15T09:13:50.093Z,98.9
2023-02-15T09:14:53.442Z,98.9
2023-02-15T09:15:56.883Z,98.8
2023-02-15T09:17:00.465Z,98.9
2023-02-15T09:18:03.583Z,98.9
2023-02-15T09:19:07.445Z,98.9
2023-02-15T09:20:10.552Z,98.9
2023-02-15T09:21:13.416Z,98.9
2023-02-15T09:22:16.868Z,99
2023-02-15T09:23:28.244Z,99.3
2023-02-15T09:24:31.438Z,99.4
2023-02-15T09:25:35.592Z,99.3
2023-02-15T09:26:38.435Z,99.2
2023-02-15T09:27:42.083Z,99.1
2023-02-15T09:28:45.464Z,99.1
2023-02-15T09:29:48.825Z,99.1
2023-02-15T09:30:52.075Z,99.1
2023-02-15T09:31:55.737Z,99.1
2023-02-15T09:32:59.492Z,99.3
2023-02-15T09:34:02.601Z,99.2
2023-02-15T09:35:05.729Z,99
2023-02-15T09:36:09.518Z,99.1
2023-02-15T09:37:12.297Z,98.9
2023-02-15T09:38:14.879Z,98.8
2023-02-15T09:39:18.514Z,98.7
2023-02-15T09:40:22.619Z,98.6
2023-02-15T09:41:26.430Z,98.6
2023-02-15T09:42:29.412Z,98.6
2023-02-15T09:43:31.931Z,98.4
2023-02-15T09:44:35.655Z,98
2023-02-15T09:45:38.538Z,97.6
2023-02-15T09:46:41.453Z,98.6
2023-02-15T09:47:45.108Z,98.7
2023-02-15T09:48:48.257Z,98.8
2023-02-15T09:49:51.306Z,98.9
2023-02-15T09:50:54.045Z,98.7
2023-02-15T09:51:56.816Z,98.7
2023-02-15T09:52:59.827Z,98.5
2023-02-15T09:54:02.691Z,98.6
2023-02-15T09:55:06.441Z,98.7
2023-02-15T09:56:09.910Z,98.5
2023-02-15T09:57:14.210Z,98.4
2023-02-15T09:58:16.731Z,98.5
2023-02-15T09:59:20.394Z,98.7
2023-02-15T10:00:24.680Z,98.8
2023-02-15T10:01:27.827Z,98.9
2023-02-15T10:02:31.623Z,98.9
2023-02-15T10:03:34.490Z,98.6
2023-02-15T10:04:38.158Z,98.4
2023-02-15T10:05:41.951Z,98.1
2023-02-15T10:06:45.069Z,97.8
2023-02-15T10:07:48.697Z,97.3
2023-02-15T10:08:52.421Z,97
2023-02-15T10:09:55.175Z,96.9
2023-02-15T10:10:58.894Z,97
2023-02-15T10:12:02.146Z,97
2023-02-15T10:13:06.465Z,97.1
2023-02-15T10:14:09.520Z,97.2
2023-02-15T10:15:12.715Z,97.4
2023-02-15T10:16:15.717Z,97.4
2023-02-15T10:17:18.902Z,97.3
2023-02-15T10:18:22.163Z,97.2
2023-02-15T10:19:29.165Z,97.1
2023-02-15T10:20:32.832Z,96.7
2023-02-15T10:21:36.478Z,96.4
2023-02-15T10:22:39.905Z,96.2
2023-02-15T10:23:42.921Z,95.9
2023-02-15T10:24:49.671Z,95.7
2023-02-15T10:25:53.388Z,95.7
2023-02-15T10:26:56.401Z,95.8
2023-02-15T10:28:00.013Z,95.9
2023-02-15T10:29:04.274Z,95.7
2023-02-15T10:30:08.372Z,95.3
2023-02-15T10:31:12.491Z,95.2
2023-02-15T10:32:17.105Z,95.1
2023-02-15T10:33:20.711Z,94.8
2023-02-15T10:34:23.787Z,94.6
2023-02-15T10:35:26.783Z,94.6
2023-02-15T10:36:30.248Z,94.7
2023-02-15T10:37:33.593Z,94.9
2023-02-15T10:38:36.981Z,95.4
2023-02-15T10:39:40.395Z,95.6
2023-02-15T10:40:43.834Z,95.6
2023-02-15T10:41:48.402Z,95.7
2023-02-15T10:42:51.489Z,95.8
2023-02-15T10:43:54.642Z,95.7
2023-02-15T10:44:58.647Z,95.8
2023-02-15T10:46:01.839Z,95.8
2023-02-15T10:47:05.665Z,95.8
2023-02-15T10:48:09.034Z,95.9
2023-02-15T10:49:12.791Z,96.2
2023-02-15T10:50:16.524Z,96.3
2023-02-15T10:51:19.676Z,96.4
2023-02-15T10:52:25.430Z,96.3
2023-02-15T10:53:28.829Z,96.4
2023-02-15T10:54:31.849Z,96.3
2023-02-15T10:55:35.008Z,95.7
2023-02-15T10:56:38.731Z,95.4
2023-02-15T10:57:42.109Z,95.6
2023-02-15T10:58:44.286Z,95.6
2023-02-15T10:59:47.778Z,95.7
2023-02-15T11:00:51.820Z,95.7
2023-02-15T11:01:55.369Z,95.9
2023-02-15T11:02:58.616Z,95.5
2023-02-15T11:04:01.677Z,95.5
2023-02-15T11:05:05.929Z,95.4
2023-02-15T11:06:09.162Z,95.4
2023-02-15T11:07:12.361Z,95.4
2023-02-15T11:08:15.375Z,95.4
2023-02-15T11:09:19.130Z,95.4
2023-02-15T11:10:22.756Z,95
2023-02-15T11:11:25.915Z,95.1
2023-02-15T11:12:29.343Z,95.1
2023-02-15T11:13:32.547Z,95
2023-02-15T11:14:35.651Z,94.8
2023-02-15T11:15:39.602Z,94.8
2023-02-15T11:16:43.883Z,94.7
2023-02-15T11:17:47.520Z,94.8
2023-02-15T11:18:51.535Z,95.1
2023-02-15T11:19:55.317Z,95.4
2023-02-15T11:20:58.586Z,95.4
2023-02-15T11:22:02.052Z,95.4
2023-02-15T11:23:05.420Z,95
2023-02-15T11:24:09.154Z,94.4
2023-02-15T11:25:13.340Z,94.6
2023-02-15T11:26:16.750Z,94.8
2023-02-15T11:27:20.458Z,94.9
2023-02-15T11:28:24.309Z,94.7
2023-02-15T11:29:27.314Z,94.2
2023-02-15T11:30:30.647Z,93.7
2023-02-15T11:31:35.151Z,93.3
2023-02-15T11:32:39.446Z,93
2023-02-15T11:33:43.187Z,92.8
2023-02-15T11:34:46.531Z,92.5
2023-02-15T11:35:49.600Z,92.3
2023-02-15T11:36:52.886Z,92.2
2023-02-15T11:37:56.399Z,91.4
2023-02-15T11:38:59.736Z,91.1
2023-02-15T11:40:03.215Z,90.9
2023-02-15T11:41:06.729Z,91
2023-02-15T11:42:09.895Z,90.8
2023-02-15T11:43:12.881Z,90.9
2023-02-15T11:44:15.866Z,90.9
2023-02-15T11:45:19.258Z,90.9
2023-02-15T11:46:23.356Z,91.3
2023-02-15T11:47:27.079Z,91.3
2023-02-15T11:48:31.035Z,90.8
2023-02-15T11:49:34.196Z,90.8
2023-02-15T11:50:38.212Z,90.6
2023-02-15T11:51:41.867Z,90.7
2023-02-15T11:52:45.523Z,90.8
2023-02-15T11:53:48.661Z,90.7
2023-02-15T11:54:52.350Z,90.7
2023-02-15T11:55:55.084Z,91
2023-02-15T11:56:58.446Z,91.1
2023-02-15T11:58:01.939Z,90.9
2023-02-15T11:59:05.084Z,91.1
2023-02-15T12:00:08.712Z,91.1
2023-02-15T12:01:11.852Z,91.2
2023-02-15T12:02:14.923Z,91.2
2023-02-15T12:03:18.327Z,91.2
2023-02-15T12:04:23.106Z,91.2
2023-02-15T12:05:26.944Z,91.2
2023-02-15T12:06:30.772Z,91.3
2023-02-15T12:07:33.752Z,91.3
2023-02-15T12:08:36.342Z,91.4
2023-02-15T12:09:39.797Z,91.5
2023-02-15T12:10:43.248Z,91.6
2023-02-15T12:11:46.391Z,91.5
2023-02-15T12:12:49.462Z,91.6
2023-02-15T12:13:52.159Z,91.6
2023-02-15T12:14:55.643Z,91.6
2023-02-15T12:15:59.613Z,91.4
2023-02-15T12:17:02.779Z,91.2
2023-02-15T12:18:05.274Z,91.1
2023-02-15T12:19:08.335Z,90.9
2023-02-15T12:20:12.776Z,90.9
2023-02-15T12:21:16.160Z,90.8
2023-02-15T12:22:19.161Z,90.7
2023-02-15T12:23:22.652Z,90.7
2023-02-15T12:24:25.642Z,90.9
2023-02-15T12:25:29.126Z,91
2023-02-15T12:26:31.644Z,91.1
2023-02-15T12:27:35.433Z,91.1
2023-02-15T12:28:42.041Z,91.1
2023-02-15T12:29:45.351Z,91.3
2023-02-15T12:30:48.361Z,91.3
2023-02-15T12:31:52.830Z,90.9
2023-02-15T12:32:56.642Z,90.4
2023-02-15T12:34:00.513Z,90.3
2023-02-15T12:35:04.623Z,90.1
2023-02-15T12:36:08.765Z,89.9
2023-02-15T12:37:11.502Z,90
2023-02-15T12:38:14.787Z,90.2
2023-02-15T12:39:17.873Z,90.4
2023-02-15T12:40:21.310Z,90.5
2023-02-15T12:41:24.121Z,90.7
2023-02-15T12:42:27.480Z,90.7
2023-02-15T12:43:30.185Z,90.5
2023-02-15T12:44:33.273Z,89.9
2023-02-15T12:45:36.665Z,89.7
2023-02-15T12:46:40.604Z,89.6
2023-02-15T12:47:44.167Z,89.4
2023-02-15T12:48:47.842Z,88.8
2023-02-15T12:49:50.623Z,88.5
2023-02-15T12:50:57.084Z,88.6
2023-02-15T12:52:00.963Z,88.6
2023-02-15T12:53:04.074Z,88.8
2023-02-15T12:54:07.425Z,89.1
2023-02-15T12:55:10.865Z,89.2
2023-02-15T12:56:13.584Z,89.4
2023-02-15T12:57:16.444Z,89.5
2023-02-15T12:58:19.457Z,89.7
2023-02-15T12:59:24.771Z,89.4
2023-02-15T13:00:27.927Z,89
2023-02-15T13:01:31.416Z,89.1
2023-02-15T13:02:34.860Z,88.8
2023-02-15T13:03:38.472Z,88.4
2023-02-15T13:04:41.813Z,88.5
2023-02-15T13:05:46.696Z,88.6
2023-02-15T13:06:50.516Z,88.3
2023-02-15T13:07:54.521Z,88.3
2023-02-15T13:08:58.150Z,87.9
2023-02-15T13:10:02.338Z,87.4
2023-02-15T13:11:06.196Z,87
2023-02-15T13:12:09.273Z,86.9
2023-02-15T13:13:12.414Z,87.1
2023-02-15T13:14:16.227Z,87
2023-02-15T13:15:19.379Z,86.4
2023-02-15T13:16:23.214Z,85.9
2023-02-15T13:17:27.063Z,85.7
2023-02-15T13:18:30.780Z,85.5
2023-02-15T13:19:34.654Z,85.6
2023-02-15T13:20:38.157Z,85.5
2023-02-15T13:21:41.530Z,85.7
2023-02-15T13:22:44.915Z,85
2023-02-15T13:23:49.136Z,84.5
2023-02-15T13:24:53.555Z,84.5
2023-02-15T13:25:56.888Z,84
2023-02-15T13:27:17.187Z,83.4
2023-02-15T13:28:20.864Z,83.1
2023-02-15T13:29:24.617Z,82.9
2023-02-15T13:30:28.363Z,82.4
2023-02-15T13:31:32.307Z,82.5
2023-02-15T13:32:36.069Z,82.7
2023-02-15T13:33:39.335Z,82.9
2023-02-15T13:34:42.954Z,82.5
2023-02-15T13:35:45.693Z,82.5
2023-02-15T13:36:48.765Z,82.1
2023-02-15T13:37:51.701Z,81.9
2023-02-15T13:38:55.890Z,82.3
2023-02-15T13:39:59.652Z,82.2
2023-02-15T13:41:04.368Z,82
2023-02-15T13:42:07.692Z,82
2023-02-15T13:43:11.018Z,81.8
2023-02-15T13:44:15.020Z,81.5
2023-02-15T13:45:18.108Z,81.7
2023-02-15T13:46:22.174Z,82.1
2023-02-15T13:47:25.152Z,82.7
2023-02-15T13:48:52.010Z,83.1
2023-02-15T13:49:55.029Z,83.5
2023-02-15T13:50:58.365Z,83.4
2023-02-15T13:52:02.119Z,83.1
2023-02-15T13:53:05.678Z,83.2
2023-02-15T13:54:09.853Z,83.3
2023-02-15T13:55:13.501Z,83.4
2023-02-15T13:56:16.295Z,83.7
2023-02-15T13:57:19.540Z,83.6
2023-02-15T13:58:23.201Z,83
2023-02-15T13:59:27.164Z,82.5
2023-02-15T14:00:30.852Z,83
2023-02-15T14:01:35.385Z,83
2023-02-15T14:02:38.908Z,83.4
2023-02-15T14:03:42.815Z,83.6
2023-02-15T14:04:46.728Z,84
2023-02-15T14:05:50.060Z,84.4
2023-02-15T14:06:52.487Z,84.7
2023-02-15T14:07:55.764Z,85.1
2023-02-15T14:11:17.983Z,85.5
2023-02-15T14:12:21.776Z,85.4
2023-02-15T14:13:25.495Z,85.5